Time;durP1;ratioP1;P1;durP2;ratioP2;P2;SDS_P1;SDS_P2;PMS_P1;PMS_P2;Temp;Humidity;BMP_temperature;BMP_pressure;BME280_temperature;BME280_humidity;BME280_pressure;Samples;Min_cycle;Max_cycle;Signal;HPM_P1;HPM_P2
2022/06/25 00:01:09;;;;;;;2.90;1.15;;;;;;;18.38;82.77;100651.19;5025933;28;20297;-80
2022/06/25 00:03:35;;;;;;;5.57;1.30;;;;;;;18.35;82.52;100660.31;5024594;28;20045;-81
2022/06/25 00:06:00;;;;;;;2.97;1.10;;;;;;;18.34;82.73;100663.13;5027117;28;20033;-79
2022/06/25 00:08:26;;;;;;;5.55;1.20;;;;;;;18.37;82.56;100652.22;5041404;28;20345;-80
2022/06/25 00:10:54;;;;;;;6.43;2.08;;;;;;;18.39;82.47;100661.50;5025231;28;20048;-81
2022/06/25 00:13:20;;;;;;;4.05;1.73;;;;;;;18.27;82.97;100665.78;5023953;28;20052;-81
2022/06/25 00:15:46;;;;;;;1.77;1.30;;;;;;;18.22;83.62;100660.38;5027077;28;20025;-80
2022/06/25 00:18:11;;;;;;;3.17;1.35;;;;;;;18.20;83.57;100667.66;5041764;28;20044;-80
2022/06/25 00:20:37;;;;;;;3.70;1.38;;;;;;;18.17;83.52;100674.13;5041299;28;20520;-82
2022/06/25 00:23:04;;;;;;;2.95;1.23;;;;;;;18.16;83.58;100672.53;5021703;28;20046;-79
2022/06/25 00:25:29;;;;;;;2.95;1.60;;;;;;;18.11;84.40;100674.16;5019543;28;20060;-81
2022/06/25 00:27:56;;;;;;;6.38;1.40;;;;;;;18.03;84.63;100680.44;5024973;28;20067;-80
2022/06/25 00:30:22;;;;;;;1.45;1.23;;;;;;;18.01;85.02;100682.47;5005404;28;20029;-81
2022/06/25 00:32:48;;;;;;;2.88;1.48;;;;;;;18.11;84.76;100679.41;5008816;28;20550;-81
2022/06/25 00:35:13;;;;;;;3.35;1.58;;;;;;;18.13;84.05;100682.63;5024508;28;20044;-78
2022/06/25 00:37:39;;;;;;;3.00;1.30;;;;;;;18.08;84.28;100680.59;5022811;28;20057;-80
2022/06/25 00:40:05;;;;;;;3.28;1.35;;;;;;;18.07;84.13;100686.88;5009730;28;20082;-79
2022/06/25 00:42:31;;;;;;;3.85;1.42;;;;;;;18.07;84.57;100694.75;5033445;28;20529;-80
2022/06/25 00:44:56;;;;;;;5.07;1.30;;;;;;;18.11;84.34;100689.91;5006634;28;20025;-80
2022/06/25 00:47:22;;;;;;;2.83;1.63;;;;;;;17.98;84.80;100694.16;5022076;28;20048;-84
2022/06/25 00:49:48;;;;;;;3.50;1.58;;;;;;;18.05;84.50;100689.72;5008526;28;20025;-81
2022/06/25 00:52:16;;;;;;;8.73;2.05;;;;;;;18.00;84.03;100696.59;5027982;28;20748;-80
2022/06/25 00:54:48;;;;;;;5.10;1.50;;;;;;;17.99;84.10;100697.59;5043543;28;20037;-81
2022/06/25 00:57:19;;;;;;;3.70;1.70;;;;;;;17.98;84.39;100704.66;5038926;28;20047;-80
2022/06/25 00:59:48;;;;;;;4.18;1.45;;;;;;;17.99;83.92;100700.22;5008612;28;20048;-82
2022/06/25 01:02:14;;;;;;;2.22;1.23;;;;;;;18.01;84.06;100706.09;5026627;28;20326;-82
2022/06/25 01:04:39;;;;;;;5.00;1.60;;;;;;;18.08;83.23;100706.84;5023597;28;20040;-81
2022/06/25 01:07:06;;;;;;;2.30;1.33;;;;;;;18.01;83.43;100714.75;5021163;28;20047;-81
2022/06/25 01:09:33;;;;;;;3.30;1.50;;;;;;;18.01;83.09;100708.72;5010980;28;20051;-78
2022/06/25 01:11:59;;;;;;;4.55;1.67;;;;;;;18.00;83.55;100720.19;5009692;28;20353;-80
2022/06/25 01:14:24;;;;;;;4.80;1.60;;;;;;;17.98;83.09;100715.16;5013905;28;20048;-79
2022/06/25 01:16:50;;;;;;;5.50;1.58;;;;;;;17.93;83.17;100720.22;5024904;28;20370;-80
2022/06/25 01:19:16;;;;;;;7.18;2.50;;;;;;;17.88;83.02;100722.66;5028803;28;20040;-81
2022/06/25 01:21:42;;;;;;;10.13;2.38;;;;;;;17.90;83.01;100731.94;5012317;28;20036;-80
2022/06/25 01:24:08;;;;;;;5.85;2.30;;;;;;;17.90;82.92;100736.38;5026613;28;20064;-79
2022/06/25 01:26:35;;;;;;;4.65;2.00;;;;;;;17.92;83.33;100739.59;5042430;28;20064;-80
2022/06/25 01:29:02;;;;;;;4.57;1.83;;;;;;;17.89;82.95;100740.00;5022780;28;20037;-80
2022/06/25 01:31:28;;;;;;;4.78;1.60;;;;;;;17.91;82.92;100748.47;5040701;28;20543;-79
2022/06/25 01:33:57;;;;;;;8.65;2.47;;;;;;;17.85;83.14;100752.72;5013692;28;20082;-79
2022/06/25 01:36:23;;;;;;;7.97;2.17;;;;;;;17.89;82.68;100753.13;5026016;28;20083;-80
2022/06/25 01:38:48;;;;;;;3.42;1.48;;;;;;;17.86;82.80;100758.78;5026615;28;20032;-80
2022/06/25 01:41:14;;;;;;;2.83;1.80;;;;;;;17.89;82.50;100756.56;5027476;28;20408;-82
2022/06/25 01:43:39;;;;;;;5.32;1.60;;;;;;;17.83;83.12;100751.28;5008619;28;20041;-79
2022/06/25 01:46:06;;;;;;;7.18;1.73;;;;;;;17.78;83.30;100753.72;5010547;28;20401;-80
2022/06/25 01:48:32;;;;;;;4.82;1.35;;;;;;;17.72;83.75;100757.94;5027614;28;20041;-79
2022/06/25 01:50:57;;;;;;;2.40;1.40;;;;;;;17.69;83.94;100751.31;5028047;28;20025;-79
2022/06/25 01:53:23;;;;;;;2.58;1.20;;;;;;;17.75;83.66;100759.38;5023926;28;20078;-80
2022/06/25 01:55:49;;;;;;;4.65;1.67;;;;;;;17.71;83.79;100757.16;5010303;28;20025;-79
2022/06/25 01:58:16;;;;;;;2.58;1.40;;;;;;;17.68;84.23;100756.75;5023706;28;20036;-79
2022/06/25 02:00:42;;;;;;;7.13;2.13;;;;;;;17.66;84.26;100764.81;5024282;28;20547;-79
2022/06/25 02:03:10;;;;;;;5.47;1.60;;;;;;;17.63;84.24;100759.16;5041285;28;20029;-80
2022/06/25 02:08:21;;;;;;;3.90;1.63;;;;;;;17.52;85.25;100771.09;5042189;28;20032;-78
2022/06/25 02:10:47;;;;;;;3.67;1.40;;;;;;;17.55;85.00;100768.06;5037328;28;20044;-79
2022/06/25 02:13:14;;;;;;;2.15;1.50;;;;;;;17.51;85.11;100772.88;5025449;28;20405;-79
2022/06/25 02:15:40;;;;;;;4.78;1.40;;;;;;;17.50;85.37;100779.16;5023910;28;20045;-79
2022/06/25 02:18:06;;;;;;;2.33;1.67;;;;;;;17.45;85.61;100778.94;5023709;28;20025;-78
2022/06/25 02:20:32;;;;;;;3.83;1.50;;;;;;;17.42;85.89;100773.31;5026217;28;20037;-79
2022/06/25 02:22:57;;;;;;;2.90;1.58;;;;;;;17.40;86.21;100786.59;5039076;28;20037;-79
2022/06/25 02:25:23;;;;;;;3.67;1.65;;;;;;;17.39;86.11;100789.44;5008008;28;20028;-78
2022/06/25 02:30:23;;;;;;;5.10;1.55;;;;;;;17.38;85.43;100793.06;5006424;28;20096;-73
2022/06/25 02:32:48;;;;;;;4.43;1.40;;;;;;;17.34;85.86;100797.91;4988843;28;20500;-73
2022/06/25 02:35:14;;;;;;;1.23;1.13;;;;;;;17.32;85.96;100795.47;4990579;28;20481;-72
2022/06/25 02:37:40;;;;;;;2.63;1.67;;;;;;;17.30;86.14;100794.88;4987769;28;20049;-73
2022/06/25 02:40:07;;;;;;;6.78;1.95;;;;;;;17.30;86.10;100789.63;4988344;28;20030;-73
2022/06/25 02:42:37;;;;;;;5.03;1.83;;;;;;;17.29;85.81;100793.28;4971269;28;20022;-72
2022/06/25 02:45:06;;;;;;;3.45;1.63;;;;;;;17.23;85.47;100798.50;4984954;28;20482;-73
2022/06/25 02:47:32;;;;;;;5.47;1.67;;;;;;;17.22;85.72;100804.75;4986621;28;20061;-73
2022/06/25 02:50:08;;;;;;;2.67;1.50;;;;;;;17.18;86.12;100806.97;4976570;28;20057;-74
2022/06/25 02:52:35;;;;;;;4.45;1.73;;;;;;;17.17;86.21;100805.34;4970540;28;20029;-72
2022/06/25 02:55:01;;;;;;;5.50;1.88;;;;;;;17.15;86.32;100807.34;4987285;28;20076;-76
2022/06/25 03:00:40;;;;;;;2.35;1.65;;;;;;;17.07;86.29;100816.19;4944081;28;20035;-73
2022/06/25 03:03:07;;;;;;;5.43;2.70;;;;;;;17.03;86.80;100812.38;4925842;29;20462;-73
2022/06/25 03:05:33;;;;;;;2.30;1.50;;;;;;;17.02;86.85;100813.34;4955510;28;20651;-72
2022/06/25 03:07:59;;;;;;;5.40;1.80;;;;;;;16.96;86.80;100814.16;5000835;28;20033;-73
2022/06/25 03:10:25;;;;;;;5.25;1.60;;;;;;;16.91;87.02;100816.56;5001536;28;20434;-73
2022/06/25 03:12:51;;;;;;;2.53;1.42;;;;;;;16.86;87.06;100819.78;4984713;28;20038;-73
2022/06/25 03:15:24;;;;;;;4.78;1.90;;;;;;;16.79;87.20;100824.16;4983508;28;20030;-76
2022/06/25 03:17:49;;;;;;;3.47;1.65;;;;;;;16.77;87.48;100831.41;4985933;28;20388;-72
2022/06/25 03:20:34;;;;;;;3.75;1.90;;;;;;;16.72;87.55;100823.31;5001478;28;20044;-72
2022/06/25 03:23:02;;;;;;;4.55;2.00;;;;;;;16.68;87.76;100830.75;4981187;28;20394;-73
2022/06/25 03:25:29;;;;;;;3.83;1.92;;;;;;;16.69;87.46;100829.75;4984065;28;20101;-73
2022/06/25 03:27:58;;;;;;;4.20;2.03;;;;;;;16.68;87.38;100832.56;4975967;28;20033;-72
2022/06/25 03:30:25;;;;;;;5.30;2.10;;;;;;;16.67;87.54;100833.56;4984339;28;20530;-75
2022/06/25 03:32:51;;;;;;;3.50;2.35;;;;;;;16.62;87.53;100835.97;4971152;28;20797;-73
2022/06/25 03:35:27;;;;;;;5.18;1.75;;;;;;;16.59;87.68;100834.53;4985114;28;20223;-74
2022/06/25 03:38:25;;;;;;;2.83;1.70;;;;;;;16.57;87.80;100835.75;4976877;28;20117;-73
2022/06/25 03:41:32;;;;;;;4.15;2.00;;;;;;;16.56;88.05;100834.94;5001083;28;20387;-73
2022/06/25 03:43:38;;;;;;;6.13;2.00;;;;;;;16.54;87.59;100839.56;4982370;28;20069;-73
2022/06/25 03:46:04;;;;;;;11.50;2.17;;;;;;;16.47;88.32;100841.34;4987255;28;20057;-72
2022/06/25 03:48:29;;;;;;;7.35;2.28;;;;;;;16.43;88.65;100840.13;4986433;28;20034;-73
2022/06/25 03:51:15;;;;;;;5.22;2.33;;;;;;;16.39;89.18;100849.31;4992152;28;20117;-73
2022/06/25 03:53:41;;;;;;;4.95;1.90;;;;;;;16.29;89.85;100842.66;4973566;28;20038;-74
2022/06/25 03:56:06;;;;;;;3.83;2.10;;;;;;;16.35;90.18;100848.94;5003141;28;20036;-73
2022/06/25 03:58:38;;;;;;;6.97;1.70;;;;;;;16.34;90.46;100853.34;4974687;28;20038;-72
2022/06/25 04:01:04;;;;;;;6.60;2.63;;;;;;;16.38;90.58;100852.97;4972435;28;20398;-73
2022/06/25 04:03:30;;;;;;;7.75;2.22;;;;;;;16.28;91.17;100848.06;4987531;28;20041;-73
2022/06/25 04:06:03;;;;;;;8.18;2.45;;;;;;;16.41;90.85;100848.16;4988170;28;20064;-73
2022/06/25 04:08:55;;;;;;;8.30;2.92;;;;;;;16.44;91.20;100852.19;5004701;28;20394;-74
2022/06/25 04:11:21;;;;;;;2.10;1.85;;;;;;;16.43;90.85;100855.81;4984894;28;20034;-73
2022/06/25 04:13:51;;;;;;;8.68;2.60;;;;;;;16.37;91.39;100857.38;4986801;28;20022;-75
2022/06/25 04:16:17;;;;;;;5.47;3.03;;;;;;;16.42;91.23;100859.41;4986558;28;20089;-74
2022/06/25 04:18:43;;;;;;;6.55;2.90;;;;;;;16.39;91.74;100855.38;4987816;28;20053;-74
2022/06/25 04:21:10;;;;;;;10.60;2.70;;;;;;;16.37;91.87;100853.94;4968027;28;20022;-73
2022/06/25 04:23:35;;;;;;;7.20;2.58;;;;;;;16.39;91.97;100852.78;4985624;28;20544;-73
2022/06/25 04:26:01;;;;;;;12.93;2.55;;;;;;;16.40;92.15;100857.00;4986654;28;20486;-75
2022/06/25 04:31:47;;;;;;;6.40;2.17;;;;;;;16.61;91.43;100858.69;4984184;28;20073;-74
2022/06/25 04:34:19;;;;;;;11.43;2.70;;;;;;;16.62;91.30;100859.53;4974419;28;20550;-75
2022/06/25 04:36:46;;;;;;;7.22;2.67;;;;;;;16.65;91.06;100859.94;4986759;28;20084;-75
2022/06/25 04:39:16;;;;;;;12.57;2.42;;;;;;;16.73;90.97;100865.00;4982843;28;20478;-75
2022/06/25 04:41:45;;;;;;;11.35;2.85;;;;;;;16.74;91.37;100865.81;4985241;28;20430;-73
2022/06/25 04:44:18;;;;;;;5.38;2.40;;;;;;;16.79;90.93;100860.00;4984020;28;20509;-73
2022/06/25 04:46:44;;;;;;;6.68;2.60;;;;;;;16.81;90.81;100863.25;4987432;28;20030;-73
2022/06/25 04:49:10;;;;;;;9.80;2.83;;;;;;;16.89;90.65;100860.47;4968676;28;20030;-74
2022/06/25 04:51:46;;;;;;;4.57;2.30;;;;;;;16.96;90.60;100869.16;4984477;28;20073;-74
2022/06/25 04:54:14;;;;;;;7.40;2.40;;;;;;;17.08;89.75;100858.91;4983529;28;20097;-75
2022/06/25 04:56:42;;;;;;;7.13;3.00;;;;;;;17.08;89.91;100867.59;4970884;28;20037;-75
2022/06/25 04:59:08;;;;;;;10.77;2.45;;;;;;;17.18;89.95;100869.84;4988235;28;20033;-73
2022/06/25 05:01:36;;;;;;;4.97;1.90;;;;;;;17.24;89.54;100876.09;5004113;28;20405;-74
2022/06/25 05:04:01;;;;;;;8.82;2.50;;;;;;;17.31;89.21;100876.94;4987722;28;20034;-74
2022/06/25 05:06:27;;;;;;;8.75;2.88;;;;;;;17.46;88.71;100874.09;4970644;28;20042;-73
2022/06/25 05:08:53;;;;;;;12.98;2.35;;;;;;;17.63;88.51;100882.41;4968580;28;20038;-75
2022/06/25 05:11:18;;;;;;;8.05;2.50;;;;;;;17.75;85.85;100878.19;4981369;28;20030;-73
2022/06/25 05:13:44;;;;;;;6.68;2.60;;;;;;;17.80;86.17;100882.81;4992615;28;20561;-75
2022/06/25 05:16:09;;;;;;;7.63;3.03;;;;;;;17.88;86.08;100874.78;4967345;28;20085;-75
2022/06/25 05:18:35;;;;;;;9.50;2.47;;;;;;;17.95;84.29;100878.22;4985662;28;20041;-75
2022/06/25 05:21:01;;;;;;;3.85;2.17;;;;;;;18.03;84.44;100882.44;4967997;28;20029;-74
2022/06/25 05:23:27;;;;;;;7.97;2.58;;;;;;;18.15;83.39;100880.00;4968354;28;20540;-75
2022/06/25 05:25:52;;;;;;;11.20;2.70;;;;;;;18.31;82.81;100884.00;4993663;28;20459;-76
2022/06/25 05:28:18;;;;;;;7.10;2.25;;;;;;;18.35;82.23;100880.78;4982340;28;20086;-75
2022/06/25 05:30:47;;;;;;;8.13;2.10;;;;;;;18.47;81.97;100879.13;4997637;28;20042;-74
2022/06/25 05:33:12;;;;;;;9.40;2.42;;;;;;;18.67;81.32;100886.16;4974612;28;20478;-75
2022/06/25 05:35:38;;;;;;;5.82;2.65;;;;;;;18.86;81.25;100887.13;4981442;28;20045;-75
2022/06/25 05:38:04;;;;;;;3.22;1.98;;;;;;;19.01;79.29;100895.53;4980698;28;20042;-74
2022/06/25 05:40:30;;;;;;;7.05;1.75;;;;;;;19.18;78.59;100889.81;4980289;28;20030;-76
2022/06/25 05:42:56;;;;;;;9.32;1.95;;;;;;;19.39;78.21;100894.72;4980842;28;20018;-76
2022/06/25 05:45:21;;;;;;;7.00;2.13;;;;;;;19.57;76.94;100887.91;4981220;28;20030;-74
2022/06/25 05:47:48;;;;;;;6.60;2.33;;;;;;;19.72;75.84;100895.50;4981313;28;20123;-75
2022/06/25 05:50:14;;;;;;;6.63;2.00;;;;;;;19.91;74.90;100888.50;4984257;28;20018;-75
2022/06/25 05:52:39;;;;;;;5.18;1.75;;;;;;;20.11;73.64;100897.03;4995418;28;20552;-77
2022/06/25 05:55:06;;;;;;;5.55;2.00;;;;;;;20.22;71.83;100891.03;4999750;28;20034;-74
2022/06/25 05:57:31;;;;;;;3.17;1.48;;;;;;;20.52;70.70;100876.38;4998475;28;20030;-73
2022/06/25 05:59:56;;;;;;;5.22;1.60;;;;;;;20.72;70.43;100889.31;4998090;28;20045;-75
2022/06/25 06:02:22;;;;;;;5.40;1.85;;;;;;;20.95;69.57;100891.28;4978612;28;20049;-74
2022/06/25 06:04:48;;;;;;;7.68;2.05;;;;;;;21.06;68.46;100887.91;4984827;28;20157;-76
2022/06/25 06:07:13;;;;;;;3.28;1.33;;;;;;;21.34;66.69;100889.13;4985191;28;20478;-75
2022/06/25 06:09:38;;;;;;;3.33;1.40;;;;;;;21.36;65.26;100897.59;5001566;28;20053;-74
2022/06/25 06:12:04;;;;;;;6.90;1.58;;;;;;;21.58;64.52;100904.00;4984242;28;20061;-75
2022/06/25 06:14:30;;;;;;;6.13;1.38;;;;;;;21.70;63.82;100903.22;4987822;28;20505;-74
2022/06/25 06:16:56;;;;;;;3.53;1.48;;;;;;;21.91;63.12;100899.25;4987318;28;20402;-76
2022/06/25 06:19:22;;;;;;;2.40;1.50;;;;;;;22.13;63.62;100902.91;4970926;28;20500;-75
2022/06/25 06:21:48;;;;;;;2.72;1.30;;;;;;;22.53;62.86;100911.97;4988815;28;20483;-75
2022/06/25 06:24:13;;;;;;;4.60;1.30;;;;;;;22.80;60.81;100903.53;4986490;28;20040;-74
2022/06/25 06:26:39;;;;;;;6.20;1.50;;;;;;;22.58;59.86;100906.78;4998940;28;20040;-75
2022/06/25 06:29:04;;;;;;;7.30;1.48;;;;;;;22.47;60.72;100908.44;5002179;28;20029;-77
2022/06/25 06:31:30;;;;;;;1.88;1.25;;;;;;;22.43;62.17;100914.41;4971840;28;20029;-75
2022/06/25 06:33:56;;;;;;;5.90;1.50;;;;;;;22.55;60.14;100901.97;4985187;28;20124;-75
2022/06/25 06:36:21;;;;;;;4.90;1.23;;;;;;;22.83;59.62;100906.50;4987529;28;20113;-75
2022/06/25 06:38:47;;;;;;;2.33;1.05;;;;;;;23.03;59.34;100911.38;4987760;28;20073;-74
2022/06/25 06:41:17;;;;;;;6.63;1.70;;;;;;;23.44;58.78;100898.88;4976607;28;20041;-78
2022/06/25 06:43:43;;;;;;;9.25;3.75;;;;;;;23.68;58.00;100910.13;5003652;28;20030;-75
2022/06/25 06:46:09;;;;;;;6.35;1.30;;;;;;;23.98;56.15;100911.69;5000076;28;20034;-75
2022/06/25 06:48:34;;;;;;;2.00;1.15;;;;;;;23.99;56.74;100921.22;5000680;28;20348;-75
2022/06/25 06:51:00;;;;;;;5.38;1.55;;;;;;;24.10;56.20;100922.16;4985105;28;20037;-75
2022/06/25 06:53:25;;;;;;;1.75;1.13;;;;;;;24.48;56.74;100912.59;4985156;28;20513;-75
2022/06/25 06:55:51;;;;;;;4.25;1.55;;;;;;;24.89;53.99;100914.97;5001004;28;20034;-74
2022/06/25 06:58:17;;;;;;;4.35;1.40;;;;;;;24.82;55.38;100918.59;4979210;28;20056;-74
2022/06/25 07:00:43;;;;;;;10.43;1.25;;;;;;;25.15;53.90;100916.84;4999407;28;20471;-74
2022/06/25 07:03:08;;;;;;;3.22;1.45;;;;;;;25.33;53.33;100923.66;4970493;28;20080;-76
2022/06/25 07:05:34;;;;;;;3.97;1.90;;;;;;;25.27;50.73;100916.69;4967472;28;20026;-75
2022/06/25 07:07:59;;;;;;;3.33;1.00;;;;;;;25.45;51.25;100920.84;4998679;28;20033;-75
2022/06/25 07:10:25;;;;;;;6.43;1.10;;;;;;;25.81;50.03;100924.59;4983841;28;20041;-75
2022/06/25 07:12:50;;;;;;;7.95;1.15;;;;;;;25.74;50.06;100912.56;4971538;28;20160;-77
2022/06/25 07:15:15;;;;;;;4.05;1.13;;;;;;;25.71;49.78;100913.06;4985026;28;20029;-76
2022/06/25 07:17:41;;;;;;;4.05;0.82;;;;;;;26.10;48.48;100916.28;4990123;28;20038;-76
2022/06/25 07:20:07;;;;;;;3.90;1.20;;;;;;;26.56;48.54;100913.03;4990380;28;20029;-75
2022/06/25 07:22:33;;;;;;;2.45;0.90;;;;;;;27.11;47.37;100913.50;4984655;28;20076;-73
2022/06/25 07:24:59;;;;;;;2.35;0.93;;;;;;;26.95;46.48;100920.66;5005229;28;20037;-76
2022/06/25 07:27:25;;;;;;;2.88;0.90;;;;;;;26.86;46.52;100916.91;4998585;28;20172;-75
2022/06/25 07:29:50;;;;;;;2.33;1.20;;;;;;;27.10;45.71;100915.34;4988126;28;20499;-75
2022/06/25 07:32:15;;;;;;;2.25;0.73;;;;;;;27.33;45.02;100916.75;4989243;28;20044;-76
2022/06/25 07:34:42;;;;;;;3.08;0.85;;;;;;;26.88;46.07;100920.09;4998920;28;20482;-75
2022/06/25 07:37:07;;;;;;;3.92;0.70;;;;;;;27.32;44.92;100912.47;4990480;28;20108;-77
2022/06/25 07:39:33;;;;;;;2.85;0.75;;;;;;;26.93;45.73;100922.78;4999652;28;20467;-75
2022/06/25 07:41:58;;;;;;;7.03;0.93;;;;;;;26.89;45.11;100922.50;4990382;28;20045;-77
2022/06/25 07:44:24;;;;;;;1.70;0.80;;;;;;;27.11;46.36;100914.31;4998779;28;20505;-77
2022/06/25 07:46:49;;;;;;;5.28;1.00;;;;;;;27.52;45.86;100916.19;4985157;28;20037;-74
2022/06/25 07:49:15;;;;;;;2.90;1.00;;;;;;;27.98;44.67;100916.19;4997947;28;20534;-76
2022/06/25 07:54:29;;;;;;;5.40;1.00;;;;;;;28.30;42.51;100915.84;4998506;28;20269;-76
2022/06/25 07:56:55;;;;;;;6.13;1.00;;;;;;;28.51;42.68;100905.09;4989227;28;20073;-75
2022/06/25 07:59:22;;;;;;;4.60;0.75;;;;;;;27.80;43.08;100911.41;5000027;28;20061;-74
2022/06/25 08:01:48;;;;;;;4.00;1.90;;;;;;;28.02;42.79;100911.91;4971202;28;20042;-78
2022/06/25 08:04:14;;;;;;;3.45;0.70;;;;;;;28.39;42.07;100918.75;5002045;28;20109;-75
2022/06/25 08:06:41;;;;;;;5.85;1.58;;;;;;;28.72;42.07;100911.94;4987588;28;20378;-75
2022/06/25 08:09:07;;;;;;;2.63;0.70;;;;;;;28.93;42.96;100909.97;4997984;28;20121;-76
2022/06/25 08:11:33;;;;;;;2.53;0.50;;;;;;;28.80;41.99;100909.75;4964483;28;20532;-76
2022/06/25 08:13:59;;;;;;;3.13;0.98;;;;;;;28.91;41.78;100914.78;4969042;28;20025;-75
2022/06/25 08:16:27;;;;;;;2.33;0.55;;;;;;;28.37;42.40;100912.88;4989493;28;20630;-75
2022/06/25 08:18:53;;;;;;;1.63;0.77;;;;;;;28.29;43.58;100911.59;4989005;28;20503;-75
2022/06/25 08:21:19;;;;;;;4.22;0.55;;;;;;;27.84;43.68;100910.59;4973283;28;20123;-76
2022/06/25 08:23:45;;;;;;;4.65;0.88;;;;;;;27.58;44.39;100904.50;4987138;28;20038;-78
2022/06/25 08:26:10;;;;;;;4.88;0.80;;;;;;;27.69;44.75;100905.28;4998753;28;20041;-74
2022/06/25 12:15:10;;;;;;;4.47;1.27;;;;;;;28.13;43.69;100894.03;5059703;28;20044;-76
2022/06/25 12:17:37;;;;;;;5.13;1.40;;;;;;;27.93;43.54;100897.56;5067918;28;20039;-77
2022/06/25 12:20:08;;;;;;;4.60;1.60;;;;;;;27.66;44.17;100897.84;5033081;28;20257;-78
2022/06/25 12:22:38;;;;;;;2.10;0.65;;;;;;;27.68;44.73;100899.16;5057589;28;20033;-78
2022/06/25 12:25:04;;;;;;;4.00;1.27;;;;;;;27.89;43.34;100893.84;5031485;28;20040;-79
2022/06/25 12:27:29;;;;;;;4.32;0.93;;;;;;;27.67;43.59;100894.09;5047408;28;20036;-78
2022/06/25 12:29:57;;;;;;;1.75;1.02;;;;;;;27.65;43.94;100899.72;5061822;28;20033;-79
2022/06/25 12:32:42;;;;;;;4.03;0.82;;;;;;;27.73;43.88;100899.16;5046620;28;20028;-80
2022/06/25 12:35:17;;;;;;;3.15;1.00;;;;;;;27.95;44.05;100890.09;5021593;28;20029;-77
2022/06/25 12:37:43;;;;;;;2.58;1.02;;;;;;;27.93;43.52;100894.88;5048858;28;20385;-78
2022/06/25 12:40:09;;;;;;;3.90;1.48;;;;;;;27.81;43.89;100889.81;5035327;28;20040;-78
2022/06/25 12:42:36;;;;;;;6.28;1.52;;;;;;;28.04;44.27;100885.00;5044830;28;20084;-77
2022/06/25 12:45:02;;;;;;;3.63;0.95;;;;;;;28.08;43.25;100888.72;5062118;28;20043;-77
2022/06/25 12:47:40;;;;;;;2.42;1.05;;;;;;;28.10;42.36;100887.38;5061022;28;20083;-78
2022/06/25 12:50:06;;;;;;;2.05;0.80;;;;;;;28.12;42.68;100881.78;5045671;28;20090;-77
2022/06/25 12:52:39;;;;;;;7.20;1.58;;;;;;;28.07;41.51;100885.25;5039046;28;20064;-83
2022/06/25 12:55:06;;;;;;;3.72;1.13;;;;;;;28.02;42.89;100879.94;5050982;28;20056;-78
2022/06/25 12:57:35;;;;;;;4.70;1.63;;;;;;;28.04;42.27;100877.81;5045607;28;20045;-79
2022/06/25 13:00:05;;;;;;;3.38;1.63;;;;;;;28.03;41.07;100886.06;5043073;28;20040;-82
2022/06/25 13:02:31;;;;;;;3.60;0.93;;;;;;;27.93;39.53;100884.22;5045654;28;20043;-79
2022/06/25 13:04:57;;;;;;;5.50;1.13;;;;;;;27.73;40.72;100896.50;5040511;28;20060;-81
2022/06/25 13:07:22;;;;;;;8.43;1.13;;;;;;;27.57;40.15;100887.72;5036444;28;20372;-81
2022/06/25 13:09:49;;;;;;;4.28;1.30;;;;;;;27.46;40.77;100880.78;5045754;28;20035;-79
2022/06/25 13:12:15;;;;;;;5.55;1.17;;;;;;;27.43;42.15;100886.69;5037260;28;20760;-79
2022/06/25 13:14:41;;;;;;;5.22;2.25;;;;;;;27.44;42.24;100884.81;5058017;28;20033;-77
2022/06/25 13:17:07;;;;;;;3.08;1.67;;;;;;;27.56;42.97;100891.47;5048083;28;20052;-79
2022/06/25 13:19:33;;;;;;;4.25;1.20;;;;;;;27.54;43.08;100882.94;5048708;28;20040;-79
2022/06/25 13:22:02;;;;;;;6.70;2.50;;;;;;;27.36;42.61;100889.59;5040770;28;20044;-79
2022/06/25 13:24:28;;;;;;;2.50;1.08;;;;;;;27.34;42.67;100883.75;5047842;28;20170;-78
2022/06/25 13:26:54;;;;;;;1.92;0.90;;;;;;;27.42;43.27;100876.28;5043795;28;20079;-77
2022/06/25 13:29:20;;;;;;;4.50;1.10;;;;;;;27.48;43.42;100888.53;5029883;28;20448;-78
2022/06/25 13:31:46;;;;;;;5.05;1.70;;;;;;;27.56;43.35;100886.13;5060508;28;20494;-77
2022/06/25 13:34:11;;;;;;;2.55;1.00;;;;;;;27.63;43.62;100885.06;5051578;28;20111;-77
2022/06/25 13:36:37;;;;;;;4.30;1.20;;;;;;;27.51;43.96;100891.44;5061979;28;20021;-78
2022/06/25 13:39:04;;;;;;;8.75;2.15;;;;;;;27.45;43.74;100878.44;5048515;28;20497;-77
2022/06/25 13:41:35;;;;;;;4.55;1.25;;;;;;;27.41;43.27;100887.97;5040435;28;20046;-76
2022/06/25 13:44:02;;;;;;;4.45;1.05;;;;;;;27.33;42.08;100878.66;5066689;28;20036;-77
2022/06/25 13:46:28;;;;;;;5.78;1.10;;;;;;;27.24;42.35;100880.22;5061355;28;20120;-81
2022/06/25 13:48:54;;;;;;;4.60;1.08;;;;;;;27.00;42.96;100881.56;5041623;28;20131;-77
2022/06/25 13:51:20;;;;;;;3.30;0.95;;;;;;;26.75;43.06;100894.81;5027737;28;20029;-80
2022/06/25 13:53:45;;;;;;;6.38;1.55;;;;;;;26.69;43.28;100882.53;5035686;28;20028;-80
2022/06/25 13:56:11;;;;;;;5.03;1.13;;;;;;;26.76;43.27;100891.06;5045929;28;20488;-77
2022/06/25 13:58:36;;;;;;;3.33;1.00;;;;;;;26.63;44.27;100891.56;5059799;28;20029;-77
2022/06/25 14:01:04;;;;;;;4.35;1.08;;;;;;;26.60;43.86;100891.03;5061245;28;20024;-78
2022/06/25 14:03:30;;;;;;;7.47;1.10;;;;;;;26.49;43.32;100894.69;5065229;28;20119;-80
2022/06/25 14:05:55;;;;;;;2.88;1.02;;;;;;;26.48;43.73;100884.31;5047361;28;20094;-78
2022/06/25 14:08:21;;;;;;;5.75;0.98;;;;;;;26.62;44.70;100885.47;5030159;28;20040;-77
2022/06/25 14:10:47;;;;;;;5.05;1.13;;;;;;;26.69;43.17;100882.53;5048335;28;20097;-78
2022/06/25 14:13:15;;;;;;;4.20;1.05;;;;;;;26.69;45.35;100883.38;5047113;28;20021;-79
2022/06/25 14:15:41;;;;;;;3.67;0.95;;;;;;;26.83;44.15;100880.22;5044126;28;20119;-79
2022/06/25 14:18:07;;;;;;;6.85;2.35;;;;;;;26.83;43.88;100872.22;5031874;28;20618;-78
2022/06/25 14:20:33;;;;;;;1.58;0.90;;;;;;;26.88;44.88;100867.72;5031701;28;20115;-78
2022/06/25 14:22:59;;;;;;;5.03;1.02;;;;;;;26.92;43.79;100868.00;5043715;28;20062;-77
2022/06/25 14:25:26;;;;;;;6.18;1.15;;;;;;;27.11;43.78;100863.75;5027868;28;20029;-77
2022/06/25 14:27:54;;;;;;;3.50;1.13;;;;;;;27.28;43.36;100860.84;5057545;28;20044;-79
2022/06/25 14:30:21;;;;;;;2.45;0.70;;;;;;;27.17;42.70;100853.91;5045601;28;20033;-81
2022/06/25 14:32:47;;;;;;;6.00;1.17;;;;;;;27.22;42.64;100850.44;5065732;28;20032;-81
2022/06/25 14:35:13;;;;;;;1.42;0.80;;;;;;;27.24;43.28;100848.31;5045171;28;20048;-79
2022/06/25 14:43:06;;;;;;;8.65;3.10;;;;;;;26.84;41.65;100844.56;5049785;28;20064;-80
2022/06/25 14:45:32;;;;;;;5.20;1.05;;;;;;;26.53;41.96;100847.13;5049855;28;20123;-77
2022/06/25 14:47:57;;;;;;;3.70;0.90;;;;;;;26.54;42.51;100844.22;5049928;28;20039;-80
2022/06/25 14:50:23;;;;;;;2.53;1.00;;;;;;;26.66;42.48;100851.19;5044837;28;20021;-78
2022/06/25 14:52:48;;;;;;;2.40;1.02;;;;;;;26.55;42.73;100852.97;5050968;28;20982;-78
2022/06/25 15:22:14;;;;;;;0.90;0.68;;;;;;;26.58;44.24;100837.31;1043048;22;20321;-74
2022/06/25 15:24:40;;;;;;;6.43;2.85;;;;;;;26.54;44.27;100838.06;5064945;28;20472;-75
2022/06/25 15:27:06;;;;;;;2.95;1.25;;;;;;;26.55;42.97;100829.84;5043739;28;20511;-74
2022/06/25 15:29:35;;;;;;;4.78;1.17;;;;;;;26.37;44.08;100833.78;5047627;28;20384;-74
2022/06/25 15:32:01;;;;;;;2.13;1.10;;;;;;;26.17;44.50;100831.06;5048357;28;20037;-74
2022/06/25 15:34:26;;;;;;;3.17;1.20;;;;;;;26.07;44.70;100831.81;5050347;28;20091;-74
2022/06/25 15:36:52;;;;;;;4.53;1.67;;;;;;;26.07;45.17;100831.81;5043398;28;20481;-74
2022/06/25 15:39:17;;;;;;;3.15;1.30;;;;;;;25.97;45.11;100815.81;5029117;28;20025;-73
2022/06/25 15:41:43;;;;;;;6.18;1.52;;;;;;;25.96;45.48;100816.88;5047317;28;20040;-73
2022/06/25 15:44:08;;;;;;;5.05;0.95;;;;;;;25.96;44.70;100812.38;5033312;28;20040;-75
2022/06/25 15:46:35;;;;;;;8.55;1.52;;;;;;;25.82;44.72;100811.19;5068141;28;20040;-75
2022/06/25 15:49:01;;;;;;;8.68;1.33;;;;;;;25.60;44.98;100816.66;5048171;28;20033;-74
2022/06/25 15:51:27;;;;;;;5.63;1.70;;;;;;;25.51;45.67;100813.66;5054944;28;20035;-74
2022/06/25 15:53:52;;;;;;;3.75;1.10;;;;;;;25.64;46.04;100818.53;5048840;28;20025;-74
2022/06/25 15:56:18;;;;;;;2.95;0.88;;;;;;;25.71;46.17;100812.19;5051069;28;20029;-74